Time;durP1;ratioP1;P1;durP2;ratioP2;P2;SDS_P1;SDS_P2;PMS_P1;PMS_P2;Temp;Humidity;BMP_temperature;BMP_pressure;BME280_temperature;BME280_humidity;BME280_pressure;Samples;Min_cycle;Max_cycle;Signal;HPM_P1;HPM_P2
2022/01/09 00:00:20;;;;;;;1.20;0.50;;;2.70;99.90;;;;;;4994694;28;20447;-68
2022/01/09 00:02:46;;;;;;;1.10;0.40;;;2.60;99.90;;;;;;4999835;28;20443;-67
2022/01/09 00:05:12;;;;;;;2.03;0.70;;;2.60;99.90;;;;;;4996074;28;20469;-68
2022/01/09 00:07:39;;;;;;;10.40;1.20;;;2.60;99.90;;;;;;4999254;28;20439;-68
2022/01/09 00:10:06;;;;;;;1.10;0.47;;;2.60;99.90;;;;;;5000325;28;20899;-68
2022/01/09 00:12:32;;;;;;;2.13;1.00;;;2.60;99.90;;;;;;5000646;28;20425;-68
2022/01/09 00:14:58;;;;;;;1.73;0.70;;;2.60;99.90;;;;;;5001128;28;20426;-68
2022/01/09 00:17:23;;;;;;;7.97;3.00;;;2.60;99.90;;;;;;4991335;28;20970;-68
2022/01/09 00:19:49;;;;;;;1.20;0.50;;;2.50;99.90;;;;;;4992345;28;20187;-68
2022/01/09 00:22:18;;;;;;;8.60;1.80;;;2.50;99.90;;;;;;4993132;28;20286;-68
2022/01/09 00:24:43;;;;;;;5.60;1.53;;;2.50;99.90;;;;;;4993663;28;20180;-68
2022/01/09 00:27:09;;;;;;;3.00;1.27;;;2.50;99.90;;;;;;5003511;28;20429;-68
2022/01/09 00:29:34;;;;;;;16.57;6.93;;;2.50;99.90;;;;;;4993551;28;20749;-68
2022/01/09 00:32:00;;;;;;;3.63;1.30;;;2.50;99.90;;;;;;4995084;28;20190;-68
2022/01/09 00:34:26;;;;;;;2.80;1.77;;;2.40;99.90;;;;;;4993904;28;20271;-68
2022/01/09 00:36:51;;;;;;;1.10;0.40;;;2.40;99.90;;;;;;4996258;28;20714;-68
2022/01/09 00:39:17;;;;;;;1.30;0.50;;;2.40;99.90;;;;;;4998699;28;20184;-68
2022/01/09 00:41:43;;;;;;;1.30;0.50;;;2.40;99.90;;;;;;4995475;28;20274;-69
2022/01/09 00:44:08;;;;;;;1.53;0.50;;;2.40;99.90;;;;;;4995112;28;20680;-69
2022/01/09 00:46:34;;;;;;;1.70;0.53;;;2.40;99.90;;;;;;4997121;28;20673;-68
2022/01/09 00:49:01;;;;;;;6.27;2.47;;;2.30;99.90;;;;;;4996672;28;20211;-69
2022/01/09 00:51:26;;;;;;;3.40;1.40;;;2.40;99.90;;;;;;4999077;28;20900;-68
2022/01/09 00:53:52;;;;;;;11.40;2.80;;;2.50;99.90;;;;;;4997171;28;20429;-69
2022/01/09 00:56:18;;;;;;;2.80;1.00;;;2.40;99.90;;;;;;4998231;28;21021;-69
2022/01/09 00:58:43;;;;;;;1.60;0.50;;;2.40;99.90;;;;;;4992022;28;20215;-69
2022/01/09 01:01:09;;;;;;;6.10;2.40;;;2.40;99.90;;;;;;4998610;28;20195;-69
2022/01/09 01:03:34;;;;;;;2.23;0.87;;;2.40;99.90;;;;;;4994932;28;20652;-68
2022/01/09 01:06:00;;;;;;;1.10;0.50;;;2.40;99.90;;;;;;4999831;28;20187;-69
2022/01/09 01:08:26;;;;;;;1.60;0.70;;;2.40;99.90;;;;;;5001090;28;20250;-69
2022/01/09 01:10:52;;;;;;;1.90;0.83;;;2.40;99.90;;;;;;4997687;28;20559;-69
2022/01/09 01:13:17;;;;;;;2.27;0.50;;;2.40;99.90;;;;;;4991321;28;20293;-69
2022/01/09 01:15:43;;;;;;;2.30;0.73;;;2.40;99.90;;;;;;4992015;28;20199;-69
2022/01/09 01:18:09;;;;;;;2.90;0.87;;;2.40;99.90;;;;;;4991516;28;20208;-69
2022/01/09 01:20:34;;;;;;;1.10;0.50;;;2.50;99.90;;;;;;4993959;28;20218;-69
2022/01/09 01:23:00;;;;;;;1.20;0.60;;;2.60;99.90;;;;;;4992743;28;20188;-68
2022/01/09 01:25:26;;;;;;;1.10;0.40;;;2.50;99.90;;;;;;4992833;28;20237;-68
2022/01/09 01:27:52;;;;;;;1.30;0.50;;;2.50;99.90;;;;;;5000464;28;20191;-69
2022/01/09 01:30:18;;;;;;;1.47;0.60;;;2.60;99.90;;;;;;4991225;28;20454;-68
2022/01/09 01:32:44;;;;;;;1.10;0.50;;;2.60;99.90;;;;;;4993039;28;20458;-69
2022/01/09 01:35:12;;;;;;;1.07;0.40;;;2.60;99.90;;;;;;4995592;28;20493;-68
2022/01/09 01:37:41;;;;;;;1.23;0.40;;;2.60;99.90;;;;;;4994113;28;20560;-68
2022/01/09 01:40:10;;;;;;;1.00;0.40;;;2.60;99.90;;;;;;4996826;28;20426;-69
2022/01/09 01:42:35;;;;;;;1.20;0.50;;;2.60;99.90;;;;;;4996010;28;20427;-69
2022/01/09 01:45:03;;;;;;;1.10;0.40;;;2.60;99.90;;;;;;4997278;28;20484;-68
2022/01/09 01:47:28;;;;;;;1.40;0.60;;;2.60;99.90;;;;;;4994622;28;20519;-68
2022/01/09 01:49:54;;;;;;;1.10;0.50;;;2.60;99.90;;;;;;4998307;28;20425;-68
2022/01/09 01:52:26;;;;;;;1.10;0.40;;;2.60;99.90;;;;;;4996256;28;20199;-69
2022/01/09 01:54:51;;;;;;;1.10;0.40;;;2.70;99.90;;;;;;4998513;28;20199;-68
2022/01/09 01:57:18;;;;;;;1.27;0.60;;;2.60;99.90;;;;;;4995915;28;20806;-69
2022/01/09 01:59:44;;;;;;;1.07;0.40;;;2.60;99.90;;;;;;4999118;28;20577;-67
2022/01/09 02:02:10;;;;;;;1.03;0.40;;;2.60;99.90;;;;;;4997027;28;20848;-66
2022/01/09 02:04:35;;;;;;;1.10;0.40;;;2.70;99.90;;;;;;4996641;28;20191;-69
2022/01/09 02:07:02;;;;;;;1.03;0.40;;;2.70;99.90;;;;;;4991715;28;20222;-67
2022/01/09 02:09:28;;;;;;;1.10;0.50;;;2.70;99.90;;;;;;4990415;28;20192;-67
2022/01/09 02:11:54;;;;;;;1.20;0.40;;;2.70;99.90;;;;;;4990317;28;20875;-67
2022/01/09 02:14:20;;;;;;;1.07;0.40;;;2.70;99.90;;;;;;4990803;28;20593;-69
2022/01/09 02:16:48;;;;;;;1.00;0.40;;;2.80;99.90;;;;;;4989763;28;20199;-67
2022/01/09 02:19:15;;;;;;;1.30;0.50;;;2.80;99.90;;;;;;4991764;28;20188;-67
2022/01/09 02:21:45;;;;;;;1.20;0.50;;;2.70;99.90;;;;;;4991012;28;20958;-67
2022/01/09 02:24:12;;;;;;;1.77;0.43;;;2.70;99.90;;;;;;4990985;28;20431;-67
2022/01/09 02:26:37;;;;;;;1.10;0.50;;;2.70;99.90;;;;;;4994290;28;20419;-67
2022/01/09 02:29:05;;;;;;;1.10;0.40;;;2.70;99.90;;;;;;4995990;28;20479;-67
2022/01/09 02:31:31;;;;;;;1.10;0.40;;;2.70;99.90;;;;;;4997288;28;20338;-67
2022/01/09 02:33:57;;;;;;;1.10;0.40;;;2.70;99.90;;;;;;4997477;28;20464;-67
2022/01/09 02:36:22;;;;;;;1.10;0.40;;;2.60;99.90;;;;;;4993268;28;20975;-67
2022/01/09 02:38:48;;;;;;;1.10;0.40;;;2.60;99.90;;;;;;4997672;28;20692;-67
2022/01/09 02:41:14;;;;;;;1.07;0.40;;;2.60;99.90;;;;;;4993631;28;20184;-67
2022/01/09 02:43:40;;;;;;;1.03;0.40;;;2.60;99.90;;;;;;4997322;28;20441;-67
2022/01/09 02:46:15;;;;;;;1.10;0.40;;;2.60;99.90;;;;;;4993660;28;20514;-67
2022/01/09 02:48:41;;;;;;;2.33;1.00;;;2.70;99.90;;;;;;4999531;28;20241;-67
2022/01/09 02:51:15;;;;;;;1.30;0.80;;;2.60;99.90;;;;;;4994509;28;21066;-67
2022/01/09 02:53:44;;;;;;;1.10;0.40;;;2.70;99.90;;;;;;4994884;28;20634;-67
2022/01/09 02:56:10;;;;;;;1.10;0.50;;;2.70;99.90;;;;;;4995474;28;20446;-67
2022/01/09 02:58:39;;;;;;;1.10;0.40;;;2.60;99.90;;;;;;4992012;28;20467;-67
2022/01/09 03:01:07;;;;;;;1.10;0.40;;;2.60;99.90;;;;;;4993730;28;20184;-66
2022/01/09 03:03:33;;;;;;;1.00;0.40;;;2.60;99.90;;;;;;4989361;28;20422;-66
2022/01/09 03:05:59;;;;;;;1.00;0.40;;;2.60;99.90;;;;;;4990082;28;20474;-68
2022/01/09 03:08:25;;;;;;;1.20;0.50;;;2.60;99.90;;;;;;4989352;28;20603;-69
2022/01/09 03:10:50;;;;;;;1.00;0.40;;;2.60;99.90;;;;;;4991759;28;20470;-69
2022/01/09 03:13:16;;;;;;;1.00;0.40;;;2.60;99.90;;;;;;4990335;28;20191;-69
2022/01/09 03:15:42;;;;;;;1.10;0.40;;;2.60;99.90;;;;;;4992507;28;20278;-68
2022/01/09 03:18:07;;;;;;;1.10;0.40;;;2.60;99.90;;;;;;4990837;28;20207;-67
2022/01/09 03:20:33;;;;;;;1.07;0.40;;;2.60;99.90;;;;;;4989514;28;20966;-66
2022/01/09 03:22:59;;;;;;;1.20;0.60;;;2.60;99.90;;;;;;4996189;28;20194;-66
2022/01/09 03:25:26;;;;;;;1.07;0.40;;;2.60;99.90;;;;;;4993846;28;20550;-66
2022/01/09 03:27:53;;;;;;;1.33;0.67;;;2.60;99.90;;;;;;4995763;28;20759;-66
2022/01/09 03:30:21;;;;;;;1.00;0.40;;;2.60;99.90;;;;;;4995584;28;20518;-65
2022/01/09 03:32:48;;;;;;;1.10;0.50;;;2.60;99.90;;;;;;4991653;28;20764;-66
2022/01/09 03:35:16;;;;;;;1.10;0.40;;;2.60;99.90;;;;;;4996036;28;20452;-66
2022/01/09 03:37:43;;;;;;;1.03;0.40;;;2.60;99.90;;;;;;4995274;28;20462;-66
2022/01/09 03:40:12;;;;;;;1.10;0.40;;;2.60;99.90;;;;;;4997326;28;20516;-66
2022/01/09 03:42:38;;;;;;;1.10;0.50;;;2.60;99.90;;;;;;4993881;28;20491;-66
2022/01/09 03:45:06;;;;;;;1.10;0.40;;;2.60;99.90;;;;;;4993848;28;20543;-66
2022/01/09 03:47:32;;;;;;;1.77;0.63;;;2.60;99.90;;;;;;4987724;28;20198;-69
2022/01/09 03:49:57;;;;;;;1.70;0.63;;;2.60;99.90;;;;;;4988570;28;20453;-66
2022/01/09 03:52:27;;;;;;;1.10;0.50;;;2.60;99.90;;;;;;4988890;28;20192;-66
2022/01/09 03:54:53;;;;;;;1.60;0.60;;;2.60;99.90;;;;;;4989787;28;20639;-66
2022/01/09 03:57:19;;;;;;;1.20;0.50;;;2.60;99.90;;;;;;4989128;28;20470;-68
2022/01/09 03:59:44;;;;;;;1.10;0.50;;;2.70;99.90;;;;;;4990922;28;20431;-66
2022/01/09 04:02:10;;;;;;;1.10;0.40;;;2.70;99.90;;;;;;4989659;28;20184;-66
2022/01/09 04:04:36;;;;;;;1.97;0.40;;;2.80;99.90;;;;;;4992184;28;20194;-66
2022/01/09 04:07:01;;;;;;;1.10;0.50;;;2.80;99.90;;;;;;4989808;28;20223;-66
2022/01/09 04:09:48;;;;;;;1.10;0.40;;;2.80;99.90;;;;;;4992882;28;20822;-66
2022/01/09 04:12:15;;;;;;;1.20;0.50;;;2.80;99.90;;;;;;4987525;28;20658;-66
2022/01/09 04:14:47;;;;;;;1.10;0.40;;;2.80;99.90;;;;;;4994972;28;20450;-66
2022/01/09 04:20:28;;;;;;;1.10;0.40;;;2.80;99.90;;;;;;5008574;28;20536;-66
2022/01/09 04:22:54;;;;;;;1.10;0.40;;;2.80;99.90;;;;;;4994954;28;20446;-66
2022/01/09 04:25:21;;;;;;;1.10;0.40;;;2.80;99.90;;;;;;4992114;28;20435;-66
2022/01/09 04:27:48;;;;;;;1.20;0.50;;;2.80;99.90;;;;;;4995624;28;20449;-66
2022/01/09 04:30:15;;;;;;;1.27;0.40;;;2.80;99.90;;;;;;4994464;28;20508;-66
2022/01/09 04:32:41;;;;;;;1.10;0.40;;;2.90;99.90;;;;;;4996156;28;20427;-66
2022/01/09 04:35:07;;;;;;;1.10;0.40;;;2.80;99.90;;;;;;4994532;28;20435;-67
2022/01/09 04:37:34;;;;;;;1.10;0.40;;;2.90;99.90;;;;;;4997649;28;20473;-66
2022/01/09 04:40:00;;;;;;;1.10;0.40;;;2.80;99.90;;;;;;4993755;28;20470;-66
2022/01/09 04:42:40;;;;;;;1.10;0.40;;;2.90;99.90;;;;;;4987486;28;20470;-67
2022/01/09 04:45:07;;;;;;;1.03;0.40;;;2.80;99.90;;;;;;4988193;28;20437;-67
2022/01/09 04:47:33;;;;;;;1.10;0.40;;;2.70;99.90;;;;;;4987790;28;20458;-67
2022/01/09 04:50:00;;;;;;;1.10;0.40;;;2.60;99.90;;;;;;4989660;28;20427;-67
2022/01/09 04:52:32;;;;;;;1.27;0.50;;;2.50;99.90;;;;;;4990474;28;20431;-67
2022/01/09 04:54:57;;;;;;;1.33;0.40;;;2.50;99.90;;;;;;4993656;28;20481;-67
2022/01/09 04:57:23;;;;;;;1.10;0.40;;;2.40;99.90;;;;;;4994500;28;20459;-67
2022/01/09 04:59:49;;;;;;;1.07;0.40;;;2.30;99.90;;;;;;4996385;28;20203;-68
2022/01/09 05:02:15;;;;;;;1.03;0.40;;;2.20;99.90;;;;;;4999750;28;20186;-67
2022/01/09 05:04:41;;;;;;;1.60;0.73;;;2.10;99.90;;;;;;4996520;28;20418;-67
2022/01/09 05:07:06;;;;;;;1.10;0.60;;;2.00;99.90;;;;;;4993192;28;20439;-68
2022/01/09 05:09:32;;;;;;;1.03;0.40;;;2.00;99.90;;;;;;4997578;28;20191;-67
2022/01/09 05:11:58;;;;;;;1.00;0.40;;;1.90;99.90;;;;;;4994478;28;20223;-67
2022/01/09 05:14:24;;;;;;;1.10;0.40;;;1.90;99.90;;;;;;4998434;28;20190;-68
2022/01/09 05:16:50;;;;;;;1.07;0.40;;;1.90;99.90;;;;;;4994088;28;20597;-68
2022/01/09 05:19:19;;;;;;;1.13;0.50;;;1.90;99.90;;;;;;5000411;28;20343;-68
2022/01/09 05:21:46;;;;;;;1.30;0.57;;;1.90;99.90;;;;;;4995545;28;20458;-68
2022/01/09 05:24:12;;;;;;;1.73;0.57;;;1.80;99.90;;;;;;4996094;28;20522;-68
2022/01/09 05:26:37;;;;;;;1.20;0.40;;;1.70;99.90;;;;;;4998885;28;20497;-69
2022/01/09 05:29:03;;;;;;;1.00;0.40;;;1.60;99.90;;;;;;5002200;28;20417;-69
2022/01/09 05:31:28;;;;;;;1.10;0.40;;;1.60;99.90;;;;;;4996487;28;20754;-69
2022/01/09 05:33:54;;;;;;;1.00;0.40;;;1.50;99.90;;;;;;5002718;28;20187;-69
2022/01/09 05:36:20;;;;;;;1.10;0.47;;;1.50;99.90;;;;;;4991603;28;20719;-68
2022/01/09 05:38:45;;;;;;;4.33;0.63;;;1.50;99.90;;;;;;4989289;28;20211;-69
2022/01/09 05:41:11;;;;;;;1.10;0.40;;;1.60;99.90;;;;;;4993229;28;20279;-69
2022/01/09 05:43:39;;;;;;;1.10;0.43;;;1.50;99.90;;;;;;4992458;28;20192;-69
2022/01/09 05:46:05;;;;;;;1.43;0.80;;;1.40;99.90;;;;;;4986342;28;20199;-69
2022/01/09 05:48:30;;;;;;;1.20;0.50;;;1.50;99.90;;;;;;4993770;28;20431;-69
2022/01/09 05:50:56;;;;;;;1.00;0.40;;;1.40;99.90;;;;;;4992991;28;20366;-69
2022/01/09 05:53:22;;;;;;;1.00;0.40;;;1.50;99.90;;;;;;4999702;28;20551;-69
2022/01/09 05:55:47;;;;;;;1.00;0.40;;;1.40;99.90;;;;;;4986743;28;20192;-69
2022/01/09 05:58:13;;;;;;;1.00;0.40;;;1.40;99.90;;;;;;4994747;28;20265;-69
2022/01/09 06:00:39;;;;;;;1.00;0.40;;;1.40;99.90;;;;;;4987386;28;20192;-70
2022/01/09 06:03:04;;;;;;;1.27;0.50;;;1.40;99.90;;;;;;4994883;28;20191;-68
2022/01/09 06:05:30;;;;;;;1.10;0.40;;;1.40;99.90;;;;;;4993062;28;20184;-68
2022/01/09 06:07:56;;;;;;;1.10;0.50;;;1.40;99.90;;;;;;4997961;28;20191;-68
2022/01/09 06:10:21;;;;;;;1.03;0.40;;;1.30;99.90;;;;;;4994543;28;20675;-69
2022/01/09 06:12:47;;;;;;;1.07;0.40;;;1.20;99.90;;;;;;4999198;28;20191;-69
2022/01/09 06:15:13;;;;;;;1.10;0.40;;;1.20;99.90;;;;;;4994786;28;20667;-69
2022/01/09 06:17:41;;;;;;;1.03;0.40;;;1.20;99.90;;;;;;4999706;28;20291;-69
2022/01/09 06:20:07;;;;;;;1.10;0.40;;;1.20;99.90;;;;;;4995566;28;20600;-69
2022/01/09 06:22:33;;;;;;;1.10;0.50;;;1.20;99.90;;;;;;5000979;28;20517;-69
2022/01/09 06:24:59;;;;;;;1.00;0.40;;;1.10;99.90;;;;;;4989985;28;20514;-69
2022/01/09 06:27:25;;;;;;;1.10;0.50;;;1.20;99.90;;;;;;5001166;28;20191;-69
2022/01/09 06:29:51;;;;;;;1.27;0.50;;;1.20;99.90;;;;;;4984148;28;20194;-69
2022/01/09 06:32:17;;;;;;;3.03;0.70;;;1.20;99.90;;;;;;4989412;28;20430;-69
2022/01/09 06:34:43;;;;;;;1.10;0.40;;;1.20;99.90;;;;;;4990252;28;20762;-69
2022/01/09 06:37:11;;;;;;;1.40;0.50;;;1.20;99.90;;;;;;4991372;28;20204;-69
2022/01/09 06:39:36;;;;;;;1.10;0.43;;;1.10;99.90;;;;;;4990587;28;20561;-69
2022/01/09 06:42:02;;;;;;;1.10;0.50;;;1.10;99.90;;;;;;4992250;28;20427;-69
2022/01/09 06:44:28;;;;;;;1.20;0.50;;;1.00;99.90;;;;;;4994907;28;20188;-69
2022/01/09 06:46:54;;;;;;;1.23;0.60;;;1.00;99.90;;;;;;4991504;28;20435;-69
2022/01/09 06:49:19;;;;;;;1.87;0.77;;;1.00;99.90;;;;;;4988780;28;20247;-69
2022/01/09 06:51:45;;;;;;;1.10;0.47;;;1.00;99.90;;;;;;4993508;28;20235;-69
2022/01/09 06:54:13;;;;;;;2.03;0.67;;;1.00;99.90;;;;;;4991913;28;20633;-69
2022/01/09 06:56:39;;;;;;;1.03;0.40;;;1.00;99.90;;;;;;4994483;28;20215;-69
2022/01/09 06:59:04;;;;;;;1.00;0.40;;;1.00;99.90;;;;;;4994145;28;20446;-69
2022/01/09 07:01:30;;;;;;;1.10;0.40;;;0.90;99.90;;;;;;4995374;28;20437;-69
2022/01/09 07:03:56;;;;;;;1.10;0.40;;;1.00;99.90;;;;;;4991928;28;20191;-69
2022/01/09 07:06:21;;;;;;;1.10;0.40;;;0.90;99.90;;;;;;4997098;28;20193;-69
2022/01/09 07:08:47;;;;;;;1.67;0.67;;;1.00;99.90;;;;;;4992146;28;20199;-69
2022/01/09 07:11:12;;;;;;;1.23;0.63;;;1.00;99.90;;;;;;4997970;28;20193;-69
2022/01/09 07:13:38;;;;;;;1.83;0.70;;;1.10;99.90;;;;;;4993873;28;20194;-68
2022/01/09 07:16:07;;;;;;;12.27;1.17;;;1.00;99.90;;;;;;4999093;28;20191;-69
2022/01/09 07:18:33;;;;;;;1.90;0.90;;;1.10;99.90;;;;;;4995553;28;20211;-69
2022/01/09 07:20:59;;;;;;;1.83;0.80;;;1.10;99.90;;;;;;5000435;28;20442;-69
2022/01/09 07:23:24;;;;;;;1.40;0.70;;;1.10;99.90;;;;;;4989925;28;20481;-69
2022/01/09 07:25:50;;;;;;;1.80;0.63;;;1.20;99.90;;;;;;4992308;28;20179;-69
2022/01/09 07:28:16;;;;;;;1.20;0.60;;;1.20;99.90;;;;;;4993051;28;20605;-69
2022/01/09 07:30:42;;;;;;;2.00;0.67;;;1.10;99.90;;;;;;4992608;28;20211;-69
2022/01/09 07:33:08;;;;;;;1.30;0.70;;;1.20;99.90;;;;;;4992583;28;20458;-69
2022/01/09 07:35:34;;;;;;;1.43;0.50;;;1.20;99.90;;;;;;4990953;28;20209;-69
2022/01/09 07:38:00;;;;;;;3.60;1.27;;;1.20;99.90;;;;;;4990271;28;20262;-70
2022/01/09 07:40:26;;;;;;;1.30;0.70;;;1.30;99.90;;;;;;4993031;28;20414;-69
2022/01/09 07:42:52;;;;;;;5.23;0.97;;;1.30;99.90;;;;;;4991105;28;20422;-69
2022/01/09 07:45:22;;;;;;;6.10;1.37;;;1.40;99.90;;;;;;4993231;28;21433;-68
2022/01/09 07:47:48;;;;;;;2.80;1.00;;;1.50;99.90;;;;;;4991218;28;20206;-68
2022/01/09 07:50:14;;;;;;;3.00;1.30;;;1.60;99.90;;;;;;4991584;28;20934;-69
2022/01/09 07:52:41;;;;;;;7.63;1.40;;;1.70;99.90;;;;;;4992071;28;20196;-69
2022/01/09 07:55:08;;;;;;;1.50;0.77;;;1.70;99.90;;;;;;4995446;28;20524;-69
2022/01/09 07:57:35;;;;;;;2.90;1.40;;;1.80;99.90;;;;;;4988456;28;20461;-68
2022/01/09 08:00:04;;;;;;;1.30;0.70;;;1.90;99.90;;;;;;4996017;28;20466;-69
2022/01/09 08:02:30;;;;;;;1.90;0.70;;;1.90;99.90;;;;;;4989812;28;20518;-68
2022/01/09 08:04:56;;;;;;;3.20;1.00;;;2.00;99.90;;;;;;4992327;28;20516;-68
2022/01/09 08:07:21;;;;;;;9.03;1.13;;;2.00;99.90;;;;;;4992787;28;20187;-68
2022/01/09 08:09:47;;;;;;;3.47;1.20;;;2.00;99.90;;;;;;4998481;28;20191;-68
2022/01/09 08:12:14;;;;;;;1.70;0.80;;;2.00;99.90;;;;;;4993591;28;20199;-68
2022/01/09 08:14:45;;;;;;;2.93;1.10;;;1.90;99.90;;;;;;4999064;28;20429;-68
2022/01/09 08:17:11;;;;;;;15.40;1.00;;;1.90;99.90;;;;;;4993359;28;20509;-68
2022/01/09 08:19:37;;;;;;;2.30;1.10;;;1.90;99.90;;;;;;4999835;28;20487;-67
2022/01/09 08:22:04;;;;;;;4.00;1.47;;;1.90;99.90;;;;;;4997660;28;20578;-68
2022/01/09 08:24:30;;;;;;;2.30;1.00;;;1.90;99.90;;;;;;4990780;28;20250;-68
2022/01/09 08:26:56;;;;;;;7.53;1.60;;;1.90;99.90;;;;;;4993577;28;20442;-68
2022/01/09 08:29:21;;;;;;;3.10;1.17;;;1.90;99.90;;;;;;4993808;28;20227;-68
2022/01/09 08:31:47;;;;;;;2.63;1.00;;;1.90;99.90;;;;;;4994369;28;20185;-68
2022/01/09 08:34:13;;;;;;;4.63;0.80;;;1.90;99.90;;;;;;4994503;28;20266;-68
2022/01/09 08:36:38;;;;;;;3.23;0.80;;;1.80;99.90;;;;;;4993443;28;20188;-68
2022/01/09 08:39:05;;;;;;;5.67;1.20;;;1.80;99.90;;;;;;4995526;28;20215;-68
2022/01/09 08:41:31;;;;;;;1.97;0.87;;;1.90;99.90;;;;;;4994640;28;20180;-68
2022/01/09 08:43:57;;;;;;;16.63;4.23;;;1.90;99.90;;;;;;4996665;28;20431;-67
2022/01/09 08:46:23;;;;;;;6.37;1.23;;;1.90;99.90;;;;;;4994524;28;20427;-68
2022/01/09 08:48:49;;;;;;;4.40;1.87;;;1.80;99.90;;;;;;4995712;28;20203;-68
2022/01/09 08:51:15;;;;;;;6.70;2.03;;;1.90;99.90;;;;;;4996172;28;20184;-68
2022/01/09 08:53:42;;;;;;;3.43;1.73;;;1.90;99.90;;;;;;4999222;28;20430;-68
2022/01/09 08:56:08;;;;;;;4.27;1.23;;;1.90;99.90;;;;;;4996620;28;20434;-67
2022/01/09 08:58:34;;;;;;;15.27;1.67;;;1.90;99.90;;;;;;4996187;28;20524;-68
2022/01/09 09:01:00;;;;;;;14.27;3.10;;;2.00;99.90;;;;;;4998506;28;20418;-67
2022/01/09 09:03:26;;;;;;;12.20;3.60;;;2.10;99.90;;;;;;4995255;28;20188;-67
2022/01/09 09:05:52;;;;;;;3.30;1.23;;;2.20;99.90;;;;;;4998064;28;20422;-68
2022/01/09 09:08:18;;;;;;;11.90;3.97;;;2.30;99.90;;;;;;4996003;28;20275;-68
2022/01/09 09:10:43;;;;;;;5.37;2.43;;;2.40;99.90;;;;;;4997246;28;20469;-68
2022/01/09 09:13:09;;;;;;;22.33;1.80;;;2.50;99.90;;;;;;5001790;28;20457;-68
2022/01/09 09:15:36;;;;;;;5.97;1.60;;;2.60;99.90;;;;;;4994469;28;20191;-67
2022/01/09 09:18:03;;;;;;;2.93;1.20;;;2.70;99.90;;;;;;4989941;28;20211;-67
2022/01/09 09:20:28;;;;;;;2.33;1.27;;;2.70;99.90;;;;;;4992470;28;20975;-68
2022/01/09 09:22:54;;;;;;;2.50;0.97;;;2.70;99.90;;;;;;4992707;28;20425;-68
2022/01/09 09:25:20;;;;;;;3.90;0.90;;;2.90;99.90;;;;;;4991483;28;20594;-68
2022/01/09 09:27:46;;;;;;;11.93;1.63;;;2.90;99.90;;;;;;4993984;28;20618;-68
2022/01/09 09:30:14;;;;;;;2.97;1.00;;;2.90;99.90;;;;;;4995268;28;20449;-68
2022/01/09 09:32:41;;;;;;;23.60;1.90;;;3.00;99.90;;;;;;4994633;28;20228;-68
2022/01/09 09:35:07;;;;;;;12.20;2.30;;;3.10;99.90;;;;;;4995878;28;20418;-68
2022/01/09 09:37:33;;;;;;;3.40;1.57;;;3.30;99.90;;;;;;4995641;28;20458;-68
2022/01/09 09:40:00;;;;;;;13.83;2.20;;;3.40;99.90;;;;;;4996331;28;20455;-68
2022/01/09 09:42:26;;;;;;;6.33;1.10;;;3.40;99.90;;;;;;4997310;28;20466;-67
2022/01/09 09:44:51;;;;;;;6.30;1.50;;;3.40;99.90;;;;;;4997277;28;20748;-67
2022/01/09 09:47:19;;;;;;;3.63;1.33;;;3.50;99.90;;;;;;4997707;28;20191;-66
2022/01/09 09:49:49;;;;;;;5.90;1.33;;;3.50;99.90;;;;;;4998600;28;20214;-66
2022/01/09 09:52:18;;;;;;;3.93;1.20;;;3.50;99.90;;;;;;4998462;28;20438;-67
2022/01/09 09:54:47;;;;;;;6.20;1.87;;;3.50;99.90;;;;;;4996485;28;20434;-67
2022/01/09 09:57:12;;;;;;;9.70;2.53;;;3.50;99.90;;;;;;4998541;28;20481;-67
2022/01/09 09:59:39;;;;;;;2.30;1.20;;;3.40;99.90;;;;;;4992529;28;20419;-68
2022/01/09 10:02:09;;;;;;;3.53;1.60;;;3.40;99.90;;;;;;4995507;28;20183;-67
2022/01/09 10:04:35;;;;;;;4.73;1.20;;;3.30;99.90;;;;;;4994861;28;20734;-68
2022/01/09 10:07:01;;;;;;;10.30;1.10;;;3.10;99.90;;;;;;4990700;28;20464;-67
2022/01/09 10:09:27;;;;;;;4.57;0.90;;;3.20;99.90;;;;;;4992809;28;20548;-67
2022/01/09 10:12:00;;;;;;;3.00;0.80;;;3.20;99.90;;;;;;4991753;28;20188;-67
2022/01/09 10:14:32;;;;;;;3.63;1.47;;;3.20;99.90;;;;;;4993796;28;20571;-67
2022/01/09 10:17:09;;;;;;;4.17;1.33;;;3.30;99.90;;;;;;4991543;28;20481;-67
2022/01/09 10:19:54;;;;;;;2.53;1.10;;;3.50;99.90;;;;;;4992606;28;20469;-67
2022/01/09 10:22:40;;;;;;;3.77;1.33;;;3.60;99.90;;;;;;4995765;28;20513;-67
2022/01/09 10:25:27;;;;;;;7.37;1.20;;;3.60;99.90;;;;;;4994102;28;20426;-67
2022/01/09 10:28:02;;;;;;;2.23;0.80;;;3.60;99.90;;;;;;4995079;28;20936;-69
2022/01/09 10:30:32;;;;;;;1.97;0.70;;;3.60;99.90;;;;;;4997554;28;20430;-68
2022/01/09 10:33:03;;;;;;;4.07;1.17;;;3.60;99.90;;;;;;4987779;28;20470;-67
2022/01/09 10:35:29;;;;;;;3.10;1.37;;;3.60;99.90;;;;;;4987158;28;20940;-67
2022/01/09 10:38:08;;;;;;;1.80;0.80;;;3.60;99.90;;;;;;4993573;28;20958;-67
2022/01/09 10:40:36;;;;;;;12.03;1.57;;;3.50;99.90;;;;;;4991556;28;20426;-67
2022/01/09 10:43:07;;;;;;;4.33;1.50;;;3.40;99.90;;;;;;4995366;28;20526;-67
2022/01/09 10:45:36;;;;;;;10.33;1.60;;;3.30;99.90;;;;;;4991662;28;20441;-68
2022/01/09 10:48:23;;;;;;;5.77;1.27;;;3.30;99.90;;;;;;4992839;28;20471;-67
2022/01/09 10:50:51;;;;;;;12.87;2.30;;;3.00;99.90;;;;;;4989909;28;20792;-67
2022/01/09 10:53:29;;;;;;;1.63;1.07;;;3.00;99.90;;;;;;4990841;28;20446;-67
2022/01/09 10:56:05;;;;;;;3.00;1.10;;;3.00;99.90;;;;;;4988099;28;20866;-67
2022/01/09 10:58:34;;;;;;;5.10;1.00;;;3.00;99.90;;;;;;4989284;28;20552;-67
2022/01/09 11:01:07;;;;;;;2.70;0.90;;;3.10;99.90;;;;;;4986510;28;20622;-67
2022/01/09 11:03:33;;;;;;;3.60;1.00;;;3.20;99.90;;;;;;4984741;28;20425;-67
2022/01/09 11:06:00;;;;;;;18.53;1.53;;;3.00;99.90;;;;;;4983559;28;20470;-67
2022/01/09 11:08:28;;;;;;;6.40;1.23;;;3.10;99.90;;;;;;4980527;28;20351;-67
2022/01/09 11:10:55;;;;;;;8.53;1.20;;;3.30;99.90;;;;;;4983177;28;20543;-67
2022/01/09 11:13:23;;;;;;;2.50;1.40;;;3.70;99.90;;;;;;4981627;28;20429;-68
2022/01/09 11:18:37;;;;;;;6.80;1.00;;;4.10;99.90;;;;;;4981764;28;21002;-66
2022/01/09 11:21:03;;;;;;;2.93;1.30;;;4.20;99.90;;;;;;4986841;28;20461;-67
2022/01/09 11:23:44;;;;;;;3.20;1.07;;;4.10;99.90;;;;;;4986426;28;20423;-66
2022/01/09 11:26:13;;;;;;;7.63;2.07;;;4.20;99.90;;;;;;4989104;28;20180;-67
2022/01/09 11:28:43;;;;;;;1.93;0.90;;;4.10;99.90;;;;;;4985705;28;20463;-66
2022/01/09 11:32:04;;;;;;;2.43;0.83;;;4.30;99.90;;;;;;4985613;28;20432;-66
2022/01/09 11:35:00;;;;;;;5.93;0.70;;;4.50;99.90;;;;;;4996386;28;20623;-67
2022/01/09 11:37:48;;;;;;;1.53;0.70;;;4.50;99.90;;;;;;4985825;28;20547;-66
2022/01/09 11:40:28;;;;;;;4.30;1.47;;;4.60;99.90;;;;;;4999413;28;20454;-66
2022/01/09 11:43:01;;;;;;;1.80;0.77;;;4.70;99.90;;;;;;5000706;28;20871;-66
2022/01/09 11:45:47;;;;;;;6.00;1.70;;;4.70;99.90;;;;;;4982403;28;20465;-66
2022/01/09 11:48:15;;;;;;;6.07;1.97;;;4.60;99.90;;;;;;4991166;28;20502;-66
2022/01/09 11:51:06;;;;;;;14.50;1.97;;;4.60;99.90;;;;;;4997515;28;20951;-67
2022/01/09 11:53:56;;;;;;;4.00;1.00;;;4.30;99.90;;;;;;4995257;28;20427;-66
2022/01/09 11:56:43;;;;;;;6.83;1.43;;;4.20;99.90;;;;;;4988037;28;20534;-66
2022/01/09 11:59:18;;;;;;;4.40;2.10;;;4.10;99.90;;;;;;4990486;28;20786;-67
2022/01/09 12:01:46;;;;;;;2.17;0.90;;;4.10;99.90;;;;;;4993280;28;20445;-66
2022/01/09 12:04:46;;;;;;;4.80;1.47;;;4.10;99.90;;;;;;4992528;28;20518;-67
2022/01/09 12:07:16;;;;;;;2.20;1.30;;;4.20;99.90;;;;;;4993929;28;20891;-68
2022/01/09 12:09:45;;;;;;;3.63;1.17;;;4.10;99.90;;;;;;4993590;28;20927;-67
2022/01/09 12:12:12;;;;;;;7.17;2.07;;;4.00;99.90;;;;;;4993284;28;20446;-67
2022/01/09 12:15:05;;;;;;;3.20;0.73;;;4.00;99.90;;;;;;4993898;28;20514;-67
2022/01/09 12:17:35;;;;;;;1.60;0.70;;;4.10;99.90;;;;;;4987790;28;20466;-68
2022/01/09 12:20:13;;;;;;;1.40;0.70;;;4.00;99.90;;;;;;4999020;28;20406;-68
2022/01/09 12:22:53;;;;;;;3.03;1.10;;;4.00;99.90;;;;;;4996639;28;20496;-67
2022/01/09 12:25:22;;;;;;;2.97;0.87;;;4.10;99.90;;;;;;4989300;28;20413;-68
2022/01/09 12:28:14;;;;;;;2.07;0.70;;;3.80;99.90;;;;;;4992320;28;20426;-67
2022/01/09 12:30:41;;;;;;;7.00;1.57;;;3.90;99.90;;;;;;4999652;28;20414;-68
2022/01/09 12:33:32;;;;;;;2.90;0.93;;;3.90;99.90;;;;;;4991273;28;20421;-67
2022/01/09 12:36:06;;;;;;;2.67;1.30;;;3.90;99.90;;;;;;4988891;28;20438;-67
2022/01/09 12:38:34;;;;;;;1.77;0.60;;;3.90;99.90;;;;;;4996534;28;20527;-67
2022/01/09 12:41:08;;;;;;;2.23;0.60;;;3.90;99.90;;;;;;4995884;28;20430;-67
2022/01/09 12:43:35;;;;;;;2.70;0.90;;;4.00;99.90;;;;;;4985406;28;20538;-68
2022/01/09 12:46:19;;;;;;;2.43;1.20;;;4.00;99.90;;;;;;4993393;28;20438;-66
2022/01/09 12:48:59;;;;;;;5.73;1.33;;;4.00;99.90;;;;;;4994544;28;20540;-67
2022/01/09 12:51:26;;;;;;;2.83;1.20;;;3.90;99.90;;;;;;4997359;28;20424;-67
2022/01/09 12:53:55;;;;;;;4.07;0.77;;;4.00;99.90;;;;;;4994673;28;20851;-68
2022/01/09 12:56:26;;;;;;;4.90;0.90;;;3.90;99.90;;;;;;4997790;28;20905;-67
2022/01/09 12:59:00;;;;;;;4.20;1.03;;;3.90;99.90;;;;;;4994855;28;20780;-67
2022/01/09 13:01:32;;;;;;;1.23;0.57;;;4.00;99.90;;;;;;4991269;28;20436;-67
2022/01/09 13:04:19;;;;;;;2.80;0.80;;;4.00;99.90;;;;;;4996221;28;21047;-67
2022/01/09 13:06:49;;;;;;;4.00;0.97;;;4.00;99.90;;;;;;4996252;28;20502;-70